Time;durP1;ratioP1;P1;durP2;ratioP2;P2;SDS_P1;SDS_P2;PMS_P1;PMS_P2;Temp;Humidity;BMP_temperature;BMP_pressure;BME280_temperature;BME280_humidity;BME280_pressure;Samples;Min_cycle;Max_cycle;Signal;HPM_P1;HPM_P2
2022/10/04 00:01:49;;;;;;;127.22;120.82;;;;;;;18.71;72.74;100704.91;5021018;28;102801;-56
2022/10/04 00:04:22;;;;;;;140.70;133.75;;;;;;;18.72;72.95;100703.81;5038700;27;102090;-56
2022/10/04 00:06:58;;;;;;;134.88;128.18;;;;;;;18.72;73.02;100698.28;5035704;27;103834;-56
2022/10/04 00:09:31;;;;;;;130.05;123.55;;;;;;;18.72;73.06;100703.81;5023922;27;102305;-56
2022/10/04 00:11:59;;;;;;;129.70;123.32;;;;;;;18.71;72.78;100696.66;5016072;28;102638;-56
2022/10/04 00:14:31;;;;;;;140.35;133.38;;;;;;;18.70;72.97;100701.31;5034110;28;102140;-55
2022/10/04 00:16:59;;;;;;;133.75;127.07;;;;;;;18.71;73.00;100702.97;5032589;27;103915;-55
2022/10/04 00:19:46;;;;;;;146.43;139.10;;;;;;;18.70;73.04;100706.03;5037293;28;101856;-56
2022/10/04 00:22:16;;;;;;;134.07;127.43;;;;;;;18.71;72.74;100697.47;5034455;27;102095;-56
2022/10/04 00:25:17;;;;;;;133.20;126.50;;;;;;;18.70;72.88;100695.00;5017586;28;102058;-56
2022/10/04 00:28:23;;;;;;;119.70;113.63;;;;;;;18.70;73.07;100695.00;5014879;28;104013;-56
2022/10/04 00:31:13;;;;;;;114.82;109.03;;;;;;;18.69;72.82;100699.72;5017625;28;102495;-56
2022/10/04 00:33:41;;;;;;;113.53;107.82;;;;;;;18.69;72.78;100701.66;5016879;28;102350;-56
2022/10/04 00:36:44;;;;;;;116.22;110.28;;;;;;;18.70;73.09;100695.00;5017430;28;102059;-56
2022/10/04 00:39:22;;;;;;;117.28;111.32;;;;;;;18.70;72.84;100703.28;5016494;28;103888;-56
2022/10/04 00:41:56;;;;;;;;;;;;;;;18.70;73.00;100706.03;5019892;28;102132;-56
2022/10/04 00:44:30;;;;;;;76.30;72.32;;;;;;;18.70;72.96;100714.31;5021599;27;102016;-55
2022/10/04 00:47:00;;;;;;;108.60;103.13;;;;;;;18.70;73.16;100719.81;5018309;28;102076;-55
2022/10/04 00:49:32;;;;;;;118.38;112.40;;;;;;;18.71;73.01;100729.72;5015973;28;103891;-56
2022/10/04 00:52:02;;;;;;;128.63;122.20;;;;;;;18.70;73.01;100719.81;5019366;28;102294;-56
2022/10/04 00:54:34;;;;;;;126.45;120.13;;;;;;;18.70;72.86;100722.56;5026105;27;102013;-56
2022/10/04 00:57:03;;;;;;;127.70;121.40;;;;;;;18.70;73.10;100733.59;5037816;27;102460;-55
2022/10/04 00:59:34;;;;;;;132.05;125.57;;;;;;;18.71;72.83;100738.00;5036427;27;104026;-56
2022/10/04 01:02:06;;;;;;;130.55;124.05;;;;;;;18.69;73.00;100740.25;5032680;27;102433;-55
2022/10/04 01:04:39;;;;;;;128.68;122.25;;;;;;;18.70;73.04;100736.34;5025596;27;102522;-56
2022/10/04 01:07:08;;;;;;;135.60;128.88;;;;;;;18.68;73.13;100733.09;5034426;28;102203;-56
2022/10/04 01:09:42;;;;;;;136.27;129.48;;;;;;;18.69;72.89;100737.50;5036543;27;103879;-56
2022/10/04 01:12:15;;;;;;;135.57;128.85;;;;;;;18.68;72.78;100731.19;5036714;27;102192;-56
2022/10/04 01:14:51;;;;;;;128.68;122.25;;;;;;;18.69;73.01;100743.81;5034775;27;102518;-56
2022/10/04 01:17:19;;;;;;;139.63;132.73;;;;;;;18.68;73.10;100744.97;5037426;27;101987;-56
2022/10/04 01:19:52;;;;;;;136.57;129.88;;;;;;;18.69;72.94;100743.00;5035898;27;103946;-56
2022/10/04 01:22:40;;;;;;;138.60;131.75;;;;;;;18.69;72.80;100748.53;5031942;27;102214;-56
2022/10/04 01:25:09;;;;;;;126.28;119.90;;;;;;;18.69;73.00;100745.78;5034658;27;102260;-56
2022/10/04 01:27:41;;;;;;;135.80;129.07;;;;;;;18.69;72.78;100748.53;5037691;27;102036;-56
2022/10/04 01:30:10;;;;;;;132.50;126.03;;;;;;;18.68;72.85;100753.25;5035875;27;104069;-56
2022/10/04 01:32:37;;;;;;;138.35;131.55;;;;;;;18.69;72.87;100754.03;5018394;27;102439;-56
2022/10/04 01:35:07;;;;;;;137.85;131.00;;;;;;;18.69;72.80;100760.34;5015743;28;102175;-56
2022/10/04 01:37:33;;;;;;;140.52;133.68;;;;;;;18.69;72.76;100757.59;5017444;28;101917;-56
2022/10/04 01:40:02;;;;;;;141.40;134.43;;;;;;;18.69;72.90;100765.06;5028630;28;103923;-56
2022/10/04 01:42:38;;;;;;;136.27;129.45;;;;;;;18.68;72.85;100763.44;5025794;27;102284;-56
2022/10/04 01:45:11;;;;;;;133.52;126.97;;;;;;;18.68;72.93;100760.66;5030743;27;102250;-56
2022/10/04 01:47:43;;;;;;;136.23;129.50;;;;;;;18.68;72.81;100768.94;5020132;28;102407;-56
2022/10/04 01:50:14;;;;;;;144.40;137.27;;;;;;;18.68;73.08;100757.91;5029808;27;104370;-56
2022/10/04 01:52:44;;;;;;;137.85;131.07;;;;;;;18.69;72.71;100765.06;5023815;27;102318;-56
2022/10/04 01:55:17;;;;;;;133.90;127.20;;;;;;;18.69;73.00;100770.59;5016020;28;102426;-55
2022/10/04 01:57:48;;;;;;;130.23;123.82;;;;;;;18.67;72.90;100764.56;5020817;28;102581;-56
2022/10/04 02:00:15;;;;;;;139.93;133.07;;;;;;;18.68;72.71;100768.94;5019022;28;103868;-56
2022/10/04 02:02:50;;;;;;;136.40;129.73;;;;;;;18.68;72.83;100768.94;5030391;28;102359;-56
2022/10/04 02:05:26;;;;;;;128.55;122.25;;;;;;;18.67;72.80;100767.31;5035591;27;102120;-56
2022/10/04 02:07:55;;;;;;;131.80;125.32;;;;;;;18.68;72.70;100771.69;5040765;27;102300;-56
2022/10/04 02:10:24;;;;;;;134.10;127.53;;;;;;;18.66;73.01;100777.53;5038408;27;103760;-56
2022/10/04 02:12:53;;;;;;;140.30;133.45;;;;;;;18.67;73.05;100772.84;5020910;27;102818;-56
2022/10/04 02:15:26;;;;;;;146.48;139.20;;;;;;;18.67;72.90;100778.34;5033611;28;102117;-55
2022/10/04 02:17:55;;;;;;;140.27;133.40;;;;;;;18.66;72.90;100782.25;5039980;27;102210;-56
2022/10/04 02:20:25;;;;;;;151.15;143.77;;;;;;;18.67;72.86;100783.88;5038695;27;104093;-56
2022/10/04 02:22:58;;;;;;;137.10;130.32;;;;;;;18.66;73.22;100783.06;5024254;27;102096;-56
2022/10/04 02:25:26;;;;;;;136.50;129.80;;;;;;;18.66;72.86;100776.75;5039145;27;102166;-56
2022/10/04 02:27:54;;;;;;;132.63;126.03;;;;;;;18.66;72.78;100782.25;5040674;27;102103;-56
2022/10/04 02:30:21;;;;;;;132.07;125.55;;;;;;;18.66;72.71;100788.56;5027039;27;103541;-56
2022/10/04 02:33:01;;;;;;;144.83;137.77;;;;;;;18.65;72.83;100786.16;5019721;28;101813;-56
2022/10/04 02:35:34;;;;;;;124.10;118.03;;;;;;;18.64;72.97;100784.50;5033659;28;101974;-56
2022/10/04 02:38:08;;;;;;;118.50;112.60;;;;;;;18.64;72.96;100779.81;5037604;27;102260;-56
2022/10/04 02:40:40;;;;;;;140.90;134.07;;;;;;;18.65;72.73;100791.66;5028459;27;103859;-56
2022/10/04 02:43:12;;;;;;;137.85;131.00;;;;;;;18.65;72.88;100786.16;5020994;28;101971;-56
2022/10/04 02:45:45;;;;;;;136.95;130.27;;;;;;;18.63;73.12;100788.41;5018441;28;102329;-56
2022/10/04 02:48:27;;;;;;;134.10;127.47;;;;;;;18.63;72.77;100791.16;5019502;28;102112;-56
2022/10/04 02:51:04;;;;;;;129.85;123.50;;;;;;;18.64;72.98;100790.03;5018274;28;104139;-56
2022/10/04 02:53:43;;;;;;;133.68;127.03;;;;;;;18.64;72.81;100806.56;5032490;28;102202;-56
2022/10/04 02:56:12;;;;;;;121.65;115.57;;;;;;;18.63;72.97;100803.00;5038423;27;102235;-56
2022/10/04 02:58:41;;;;;;;132.15;125.70;;;;;;;18.62;72.83;100795.88;5030115;27;102581;-56
2022/10/04 03:01:16;;;;;;;139.23;132.40;;;;;;;18.63;73.28;100807.69;5018398;28;104017;-56
2022/10/04 03:03:46;;;;;;;138.32;131.60;;;;;;;18.63;72.93;100807.69;5038619;28;102303;-56
2022/10/04 03:06:17;;;;;;;136.35;129.65;;;;;;;18.63;72.96;100814.03;5038485;27;102148;-56
2022/10/04 03:08:49;;;;;;;134.07;127.53;;;;;;;18.62;73.05;100808.84;5035665;27;102102;-56
2022/10/04 03:11:23;;;;;;;131.25;124.78;;;;;;;18.62;73.09;100820.69;5034889;27;103921;-56
2022/10/04 03:13:53;;;;;;;133.05;126.53;;;;;;;18.63;73.15;100818.72;5034118;27;102516;-57
2022/10/04 03:16:21;;;;;;;152.32;144.95;;;;;;;18.63;72.77;100832.50;5028975;28;102367;-56
2022/10/04 03:18:48;;;;;;;130.70;124.18;;;;;;;18.63;72.70;100832.50;5032411;27;102684;-56
2022/10/04 03:21:17;;;;;;;133.43;126.87;;;;;;;18.62;73.00;100837.22;5037959;27;103690;-56
2022/10/04 03:23:45;;;;;;;126.05;119.72;;;;;;;18.62;72.91;100841.91;5038144;27;102121;-56
2022/10/04 03:26:27;;;;;;;135.85;129.13;;;;;;;18.61;73.16;100852.13;5026022;27;102394;-56
2022/10/04 03:28:55;;;;;;;129.07;122.68;;;;;;;18.62;73.19;100853.75;5026754;27;102161;-57
2022/10/04 03:31:23;;;;;;;128.97;122.57;;;;;;;18.62;73.06;100858.47;5024730;28;104058;-56
2022/10/04 03:33:49;;;;;;;134.23;127.55;;;;;;;18.62;72.99;100863.97;5018329;28;102294;-56
2022/10/04 03:36:17;;;;;;;135.80;129.18;;;;;;;18.61;72.64;100870.59;5017123;28;102305;-56
2022/10/04 03:38:45;;;;;;;128.83;122.50;;;;;;;18.62;72.78;100875.00;5022042;28;102541;-56
2022/10/04 03:41:13;;;;;;;124.22;118.13;;;;;;;18.61;73.13;100876.94;5025608;27;103218;-56
2022/10/04 03:43:44;;;;;;;134.00;127.45;;;;;;;18.61;72.89;100873.34;5020472;28;102466;-56
2022/10/04 03:46:13;;;;;;;130.18;123.85;;;;;;;18.61;73.14;100878.88;5028795;28;102220;-56
2022/10/04 03:48:44;;;;;;;132.83;126.37;;;;;;;18.61;73.05;100873.34;5038561;27;102207;-56
2022/10/04 03:51:15;;;;;;;130.75;124.28;;;;;;;18.60;72.84;100871.75;5027880;28;103922;-56
2022/10/04 03:53:45;;;;;;;123.30;117.22;;;;;;;18.59;72.82;100876.44;5034381;27;102188;-56
2022/10/04 03:56:15;;;;;;;135.80;129.20;;;;;;;18.60;73.14;100880.00;5037558;27;101961;-57
2022/10/04 03:58:43;;;;;;;140.98;134.20;;;;;;;18.59;73.26;100881.16;5038390;27;102145;-56
2022/10/04 04:01:25;;;;;;;130.88;124.53;;;;;;;18.59;72.99;100884.72;5026568;27;104053;-56
2022/10/04 04:04:00;;;;;;;123.13;117.05;;;;;;;18.59;73.32;100883.91;5017786;28;102247;-56
2022/10/04 04:06:36;;;;;;;122.45;116.45;;;;;;;18.59;73.15;100886.66;5029522;28;102270;-56
2022/10/04 04:09:05;;;;;;;124.65;118.50;;;;;;;18.58;72.83;100885.84;5037393;27;102486;-56
2022/10/04 04:11:32;;;;;;;125.03;118.88;;;;;;;18.58;73.11;100890.56;5035774;27;104059;-56
2022/10/04 04:14:06;;;;;;;141.73;134.88;;;;;;;18.59;73.06;100900.44;5034320;27;102292;-56
2022/10/04 04:16:36;;;;;;;128.45;122.18;;;;;;;18.59;73.18;100903.19;5025352;28;103293;-56
2022/10/04 04:19:09;;;;;;;131.05;124.63;;;;;;;18.58;72.92;100905.16;5038612;27;102218;-56
2022/10/04 04:21:37;;;;;;;126.25;120.05;;;;;;;18.59;73.18;100908.72;5031119;27;103942;-55
2022/10/04 04:24:10;;;;;;;136.07;129.43;;;;;;;18.57;73.25;100917.31;5023837;27;101923;-56
2022/10/04 04:26:41;;;;;;;130.25;123.88;;;;;;;18.58;72.89;100918.13;5028469;27;102016;-56
2022/10/04 04:29:17;;;;;;;122.50;116.53;;;;;;;18.57;72.96;100922.00;5018379;28;102349;-56
2022/10/04 04:31:50;;;;;;;124.82;118.72;;;;;;;18.57;72.96;100924.75;5016812;28;103832;-56
2022/10/04 04:34:20;;;;;;;127.95;121.75;;;;;;;18.58;72.97;100926.38;5036872;27;102438;-56
2022/10/04 04:36:46;;;;;;;129.85;123.50;;;;;;;18.57;73.21;100930.25;5028228;27;102246;-55
2022/10/04 04:39:33;;;;;;;129.82;123.38;;;;;;;18.57;73.12;100930.25;5022199;28;102409;-56
2022/10/04 04:42:04;;;;;;;119.30;113.47;;;;;;;18.56;72.89;100925.88;5027361;27;103896;-56
2022/10/04 04:44:33;;;;;;;129.00;122.68;;;;;;;18.57;73.13;100935.78;5018494;28;102377;-56
2022/10/04 04:47:04;;;;;;;122.65;116.60;;;;;;;18.57;73.09;100938.53;5033937;28;102267;-56
2022/10/04 04:49:36;;;;;;;116.05;110.38;;;;;;;18.57;73.26;100950.38;5038336;27;102702;-56
2022/10/04 04:52:03;;;;;;;117.90;112.10;;;;;;;18.58;73.23;100945.69;5029822;27;104218;-56
2022/10/04 04:54:30;;;;;;;129.93;123.57;;;;;;;18.58;73.45;100951.19;5023281;28;102257;-56
2022/10/04 04:56:56;;;;;;;120.95;115.03;;;;;;;18.57;73.02;100952.31;5019136;28;102258;-56
2022/10/04 04:59:26;;;;;;;139.13;132.38;;;;;;;18.58;73.17;100952.00;5017292;28;103988;-56
2022/10/04 05:01:54;;;;;;;130.63;124.28;;;;;;;18.58;73.51;100957.53;5017471;28;103852;-56
2022/10/04 05:04:22;;;;;;;126.33;120.20;;;;;;;18.58;73.19;100963.03;5019458;28;103101;-56
2022/10/04 05:07:00;;;;;;;125.07;118.90;;;;;;;18.58;72.97;100963.03;5027492;28;102271;-56
2022/10/04 05:09:29;;;;;;;123.18;117.18;;;;;;;18.59;73.03;100974.88;5018060;28;102704;-56
2022/10/04 05:12:01;;;;;;;119.47;113.70;;;;;;;18.59;73.31;100977.63;5020131;27;103887;-56
2022/10/04 05:14:30;;;;;;;119.70;113.80;;;;;;;18.62;73.75;100974.22;5026329;28;102307;-56
2022/10/04 05:16:58;;;;;;;128.57;122.30;;;;;;;18.63;73.99;100975.84;5022783;28;102481;-56
2022/10/04 05:19:30;;;;;;;126.40;120.13;;;;;;;18.63;74.64;100978.59;5026538;28;102379;-56
2022/10/04 05:21:59;;;;;;;126.05;119.90;;;;;;;18.66;74.56;100986.25;5032755;27;104041;-55
2022/10/04 05:24:29;;;;;;;128.50;122.18;;;;;;;18.67;74.78;100987.84;5020665;27;102485;-56
2022/10/04 05:27:00;;;;;;;131.23;124.88;;;;;;;18.67;74.77;100993.38;5025038;28;101953;-56
2022/10/04 05:29:31;;;;;;;120.47;114.55;;;;;;;18.67;74.66;100996.13;5020709;28;102261;-56
2022/10/04 05:32:16;;;;;;;123.95;117.90;;;;;;;18.65;74.73;101001.16;5019901;27;103982;-56
2022/10/04 05:34:47;;;;;;;109.28;103.95;;;;;;;18.66;74.54;101002.78;5018534;28;102005;-56
2022/10/04 05:37:26;;;;;;;120.55;114.75;;;;;;;18.66;75.05;101002.78;5022391;28;101863;-56
2022/10/04 05:40:04;;;;;;;116.20;110.53;;;;;;;18.65;74.60;101006.69;5025703;27;102474;-56
2022/10/04 05:42:37;;;;;;;113.43;107.90;;;;;;;18.62;74.33;101013.63;5022704;28;103962;-56
2022/10/04 05:45:15;;;;;;;110.95;105.53;;;;;;;18.62;74.34;101018.34;5021852;28;102159;-56
2022/10/04 05:47:45;;;;;;;115.50;109.93;;;;;;;18.61;74.44;101017.53;5018041;28;102079;-56
2022/10/04 05:50:16;;;;;;;122.03;116.10;;;;;;;18.62;74.21;101021.09;5028854;27;104446;-56
2022/10/04 05:52:44;;;;;;;118.15;112.40;;;;;;;18.62;73.99;101023.84;5029374;28;103944;-56
2022/10/04 05:55:20;;;;;;;108.50;103.10;;;;;;;18.62;73.76;101029.34;5033434;27;101951;-56
2022/10/04 05:58:06;;;;;;;110.72;105.32;;;;;;;18.62;73.82;101040.38;5033613;27;102215;-56
2022/10/04 06:00:44;;;;;;;108.18;102.93;;;;;;;18.62;73.63;101041.19;5014171;28;102468;-56
2022/10/04 06:03:26;;;;;;;111.30;105.93;;;;;;;18.64;73.38;101043.63;5018626;28;104154;-56
2022/10/04 06:05:56;;;;;;;111.20;105.75;;;;;;;18.62;73.60;101051.41;5018007;28;102006;-56
2022/10/04 06:08:33;;;;;;;117.10;111.38;;;;;;;18.63;73.36;101053.03;5016110;28;102091;-56
2022/10/04 06:11:08;;;;;;;117.55;111.85;;;;;;;18.65;73.43;101048.03;5028098;28;101985;-56
2022/10/04 06:14:02;;;;;;;114.80;109.20;;;;;;;18.65;73.49;101050.78;5016218;28;103830;-56
2022/10/04 06:16:43;;;;;;;107.28;102.00;;;;;;;18.67;73.21;101051.25;5024386;27;102040;-56
2022/10/04 06:19:35;;;;;;;109.82;104.43;;;;;;;18.68;73.39;101056.47;5014551;28;102517;-56
2022/10/04 06:22:15;;;;;;;105.03;99.88;;;;;;;18.69;73.29;101062.78;5015305;28;102101;-56
2022/10/04 06:24:47;;;;;;;121.90;116.03;;;;;;;18.70;73.51;101065.22;5020801;28;104017;-56
2022/10/04 06:27:18;;;;;;;119.82;114.05;;;;;;;18.69;73.47;101068.31;5025024;28;102087;-56
2022/10/04 06:29:50;;;;;;;128.75;122.50;;;;;;;18.71;73.46;101071.56;5014581;28;102045;-56
2022/10/04 06:32:44;;;;;;;128.55;122.35;;;;;;;18.71;73.13;101069.63;5028540;28;102416;-56
2022/10/04 06:35:48;;;;;;;118.95;113.20;;;;;;;18.72;73.10;101082.31;5004238;27;103929;-56
2022/10/04 06:38:45;;;;;;;107.05;101.82;;;;;;;18.73;73.37;101083.13;5017797;28;102496;-55
2022/10/04 06:41:31;;;;;;;109.03;103.65;;;;;;;18.73;73.64;101092.19;5011668;28;102637;-56
2022/10/04 06:44:11;;;;;;;112.97;107.40;;;;;;;18.74;73.38;101093.00;5024298;27;102374;-56
2022/10/04 06:46:45;;;;;;;113.93;108.32;;;;;;;18.75;73.29;101094.63;5035101;27;104759;-56
2022/10/04 06:49:32;;;;;;;130.35;124.03;;;;;;;18.75;73.32;101099.31;5036087;27;101851;-57
2022/10/04 06:52:18;;;;;;;117.43;111.75;;;;;;;18.76;72.96;101096.25;5029410;27;102298;-56
2022/10/04 06:54:59;;;;;;;124.25;118.25;;;;;;;18.76;72.77;101096.25;5026215;28;102803;-56
2022/10/04 06:57:50;;;;;;;121.25;115.30;;;;;;;18.77;72.86;101097.88;5027173;28;103877;-56
2022/10/04 07:00:20;;;;;;;126.43;120.30;;;;;;;18.79;73.10;101101.16;5007839;28;102438;-57
2022/10/04 07:02:50;;;;;;;136.25;129.65;;;;;;;18.78;72.86;101099.50;5031282;27;102078;-56
2022/10/04 07:05:29;;;;;;;137.10;130.48;;;;;;;18.78;73.12;101104.22;5035852;27;102375;-56
2022/10/04 07:08:10;;;;;;;129.77;123.47;;;;;;;18.77;73.03;101103.41;5034501;27;103911;-56
2022/10/04 07:10:47;;;;;;;132.23;125.80;;;;;;;18.79;72.93;101112.19;5016950;27;102425;-56
2022/10/04 07:13:35;;;;;;;132.07;125.68;;;;;;;18.78;73.29;101105.03;5020443;28;104637;-56
2022/10/04 07:16:07;;;;;;;127.57;121.30;;;;;;;18.79;73.28;101112.19;5017971;28;104451;-56
2022/10/04 07:18:42;;;;;;;134.07;127.55;;;;;;;18.80;73.37;101116.56;5032148;27;103908;-56
2022/10/04 07:21:14;;;;;;;142.25;135.35;;;;;;;18.81;73.09;101109.91;5013321;28;102370;-56
2022/10/04 07:23:49;;;;;;;140.95;134.20;;;;;;;18.81;73.19;101114.59;5014844;28;102526;-56
2022/10/04 07:26:25;;;;;;;146.73;139.68;;;;;;;18.83;73.11;101118.69;5021230;28;102453;-56
2022/10/04 07:31:43;;;;;;;135.57;129.00;;;;;;;18.84;73.17;101125.00;5028419;28;102615;-56
2022/10/04 07:34:14;;;;;;;139.02;132.32;;;;;;;18.83;73.13;101126.97;5027426;28;102538;-56
2022/10/04 07:36:45;;;;;;;145.75;138.68;;;;;;;18.82;73.23;101128.06;5029271;28;102180;-56
2022/10/04 07:39:15;;;;;;;161.30;153.50;;;;;;;18.83;72.79;101124.19;5024233;28;103761;-56
2022/10/04 07:41:50;;;;;;;152.88;145.50;;;;;;;18.84;72.97;101125.81;5034756;27;102387;-56
2022/10/04 07:44:27;;;;;;;150.63;143.27;;;;;;;18.84;72.82;101125.00;5019934;27;102181;-56
2022/10/04 07:46:59;;;;;;;155.77;148.18;;;;;;;18.84;72.60;101125.81;5024027;28;102289;-56
2022/10/04 07:49:26;;;;;;;140.68;133.85;;;;;;;18.84;72.41;101131.34;5021686;27;104047;-56
2022/10/04 07:52:31;;;;;;;153.77;146.32;;;;;;;18.83;72.79;101137.19;5022679;27;103009;-56
2022/10/04 07:55:12;;;;;;;127.32;121.13;;;;;;;18.84;72.92;101136.84;5020253;28;102064;-56
2022/10/04 07:57:48;;;;;;;139.75;132.93;;;;;;;18.84;72.96;101136.84;5026040;28;103897;-56
2022/10/04 08:00:18;;;;;;;147.80;140.57;;;;;;;18.85;72.94;101143.97;5013788;28;103899;-56
2022/10/04 08:03:03;;;;;;;153.32;145.93;;;;;;;18.84;73.02;101139.59;5033215;28;102164;-56
2022/10/04 08:05:36;;;;;;;146.02;138.98;;;;;;;18.85;72.59;101134.91;5018760;28;102673;-56
2022/10/04 08:08:27;;;;;;;153.98;146.60;;;;;;;18.85;72.57;101143.16;5031777;27;102589;-56
2022/10/04 08:11:11;;;;;;;140.90;134.07;;;;;;;18.85;72.89;101138.47;5031410;28;104267;-56
2022/10/04 08:13:44;;;;;;;147.90;140.73;;;;;;;18.86;72.35;101142.88;5013310;28;102549;-57
2022/10/04 08:16:22;;;;;;;158.10;150.45;;;;;;;18.87;72.62;101130.69;5014491;28;102092;-56
2022/10/04 08:19:05;;;;;;;141.43;134.47;;;;;;;18.89;72.50;101144.16;5023122;28;102356;-56
2022/10/04 08:21:44;;;;;;;146.88;139.77;;;;;;;18.89;72.81;101144.97;5016129;28;104527;-56
2022/10/04 08:24:19;;;;;;;138.90;132.10;;;;;;;18.89;72.78;101144.97;5025444;28;102572;-56
2022/10/04 08:27:14;;;;;;;146.23;139.15;;;;;;;18.91;72.45;101145.47;5026256;28;102596;-56
2022/10/04 08:30:01;;;;;;;139.00;132.35;;;;;;;18.92;72.56;101143.53;5015397;28;102139;-57
2022/10/04 08:32:50;;;;;;;147.40;140.18;;;;;;;18.94;72.32;101138.53;5020098;28;104033;-55
2022/10/04 08:35:32;;;;;;;133.02;126.50;;;;;;;18.95;72.30;101149.22;5013906;28;102108;-56
2022/10/04 08:38:40;;;;;;;142.63;135.77;;;;;;;18.95;72.06;101146.47;5014938;28;102307;-56
2022/10/04 08:41:42;;;;;;;124.93;118.80;;;;;;;18.96;72.37;101148.09;4960086;28;102428;-57
2022/10/04 08:44:46;;;;;;;130.40;124.00;;;;;;;18.98;72.26;101156.06;4933384;28;103964;-55
2022/10/04 08:47:46;;;;;;;132.27;125.78;;;;;;;18.97;72.26;101151.69;5009848;28;102118;-55
2022/10/04 08:50:54;;;;;;;135.85;129.25;;;;;;;18.97;72.41;101157.19;5032652;28;102474;-56
2022/10/04 08:53:50;;;;;;;122.57;116.60;;;;;;;18.98;72.22;101164.34;5028045;27;102512;-55
2022/10/04 08:56:30;;;;;;;136.05;129.43;;;;;;;18.97;72.23;101157.19;5013053;28;103931;-56
2022/10/04 08:59:23;;;;;;;140.43;133.60;;;;;;;18.98;72.32;101164.34;5018466;27;102846;-56
2022/10/04 09:02:22;;;;;;;134.07;127.57;;;;;;;18.97;71.88;101168.25;5028357;28;102449;-55
2022/10/04 09:05:22;;;;;;;134.73;128.00;;;;;;;18.97;71.72;101171.00;4999390;28;102343;-56
2022/10/04 09:08:37;;;;;;;134.32;127.65;;;;;;;18.95;71.66;101160.25;5017638;28;104406;-56
2022/10/04 09:11:31;;;;;;;117.35;111.53;;;;;;;18.96;71.92;101167.41;5023251;27;102253;-56
2022/10/04 09:14:22;;;;;;;127.03;120.85;;;;;;;18.96;71.53;101159.13;5034269;28;102210;-56
2022/10/04 09:17:06;;;;;;;127.50;121.15;;;;;;;18.99;71.49;101165.97;5037765;27;102232;-56
2022/10/04 09:19:47;;;;;;;132.25;125.75;;;;;;;18.99;71.60;101167.91;5034176;27;104083;-56
2022/10/04 09:22:23;;;;;;;144.77;137.77;;;;;;;19.01;71.69;101162.91;5021912;27;102518;-56
2022/10/04 09:25:20;;;;;;;148.80;141.57;;;;;;;19.01;71.50;101171.16;5035659;27;102256;-56
2022/10/04 09:28:16;;;;;;;140.07;133.25;;;;;;;19.02;71.56;101170.03;5033353;27;102435;-56
2022/10/04 09:31:16;;;;;;;130.20;123.88;;;;;;;19.02;71.79;101181.06;5014086;28;103923;-56
2022/10/04 09:34:13;;;;;;;128.68;122.25;;;;;;;19.02;71.58;101175.56;5030190;28;102548;-56
2022/10/04 09:37:02;;;;;;;122.07;115.97;;;;;;;19.01;71.65;101176.69;5035716;27;102204;-56
2022/10/04 09:39:57;;;;;;;139.27;132.45;;;;;;;19.02;71.90;101181.06;5018234;27;102778;-56
2022/10/04 09:42:56;;;;;;;129.30;123.03;;;;;;;19.02;72.07;101186.59;5034357;28;103959;-56
2022/10/04 09:45:36;;;;;;;127.30;120.95;;;;;;;19.02;71.88;101186.59;5006171;28;102359;-56
2022/10/04 09:48:24;;;;;;;131.45;124.95;;;;;;;19.01;71.49;101182.22;5019998;28;102344;-56
2022/10/04 09:51:15;;;;;;;;;;;;;;;19.02;71.86;101181.06;5020943;28;102405;-56
2022/10/04 09:54:14;;;;;;;88.70;84.30;;;;;;;19.01;71.57;101187.72;5034754;27;104032;-56
2022/10/04 09:57:14;;;;;;;107.43;102.20;;;;;;;19.00;71.70;101178.59;5025469;28;102214;-56
2022/10/04 09:59:57;;;;;;;116.32;110.60;;;;;;;19.01;71.59;101190.47;4982892;28;102657;-56
2022/10/04 10:02:55;;;;;;;128.30;122.05;;;;;;;19.00;71.62;101181.38;5017914;28;102870;-56
2022/10/04 10:05:37;;;;;;;;;;;;;;;19.00;71.53;101177.81;5015926;28;103878;-56
2022/10/04 10:08:15;;;;;;;80.93;76.97;;;;;;;19.01;71.74;101187.72;5015488;28;102056;-56
2022/10/04 10:14:10;;;;;;;108.10;102.80;;;;;;;18.99;71.71;101181.69;5018528;28;102321;-56
2022/10/04 10:16:48;;;;;;;113.90;108.28;;;;;;;18.99;71.29;101181.69;5024598;28;103930;-56
2022/10/04 10:19:53;;;;;;;115.88;110.18;;;;;;;18.96;71.44;101189.47;5020096;28;102475;-56
2022/10/04 10:22:36;;;;;;;110.97;105.53;;;;;;;18.96;71.82;101186.69;4992662;27;102475;-56
2022/10/04 10:25:35;;;;;;;127.90;121.65;;;;;;;18.98;71.60;101183.66;5025801;28;102347;-56
2022/10/04 10:28:24;;;;;;;118.55;112.65;;;;;;;18.99;71.19;101187.22;5020763;28;104207;-56
2022/10/04 10:31:10;;;;;;;117.13;111.38;;;;;;;18.99;71.35;101187.22;5017359;28;102155;-56
2022/10/04 10:34:00;;;;;;;118.18;112.35;;;;;;;18.97;70.96;101182.03;5021719;28;102021;-56
2022/10/04 10:36:46;;;;;;;120.63;114.47;;;;;;;18.95;71.04;101179.56;5015469;28;102316;-56
2022/10/04 10:39:33;;;;;;;122.90;116.88;;;;;;;18.95;71.09;101193.34;5021824;28;103885;-56
2022/10/04 10:42:42;;;;;;;122.78;116.75;;;;;;;18.96;71.47;101188.66;5031901;28;102193;-56
2022/10/04 10:45:25;;;;;;;114.57;108.88;;;;;;;18.94;71.05;101188.97;5022544;28;102397;-56
2022/10/04 10:48:00;;;;;;;115.10;109.25;;;;;;;18.94;71.11;101188.16;5032360;27;102276;-56
2022/10/04 10:50:57;;;;;;;120.18;114.03;;;;;;;18.94;70.96;101188.16;5029522;27;104050;-56
2022/10/04 10:53:49;;;;;;;107.18;101.90;;;;;;;18.94;70.93;101183.47;5023854;28;102366;-56
2022/10/04 10:56:42;;;;;;;113.03;107.50;;;;;;;18.92;71.16;101190.41;5023394;28;102503;-56
2022/10/04 10:59:38;;;;;;;115.90;110.15;;;;;;;18.93;71.03;101189.28;5036350;28;102638;-56
2022/10/04 11:02:35;;;;;;;108.05;102.70;;;;;;;18.91;71.25;101188.78;5037724;27;103995;-56
2022/10/04 11:05:41;;;;;;;108.75;103.28;;;;;;;18.90;70.97;101201.78;5024700;28;102387;-56
2022/10/04 11:08:31;;;;;;;101.55;96.57;;;;;;;18.90;71.11;101196.25;5016214;27;102790;-56
2022/10/04 11:11:18;;;;;;;114.32;108.75;;;;;;;18.89;71.16;101205.63;5022316;28;102242;-56
2022/10/04 11:14:10;;;;;;;114.10;108.53;;;;;;;18.89;71.27;101202.06;5018565;28;104130;-56
2022/10/04 11:17:02;;;;;;;106.45;101.25;;;;;;;18.87;71.24;101196.88;5028712;27;101961;-56
2022/10/04 11:20:10;;;;;;;110.88;105.40;;;;;;;18.86;71.38;101195.28;5034090;28;102108;-56
2022/10/04 11:23:04;;;;;;;100.65;95.65;;;;;;;18.87;71.43;101196.06;5008003;27;102348;-56
2022/10/04 11:25:57;;;;;;;102.30;97.20;;;;;;;18.86;71.05;101198.03;5021362;27;103971;-56
2022/10/04 11:28:34;;;;;;;108.90;103.50;;;;;;;18.85;70.89;101199.13;5007633;27;102924;-56
2022/10/04 11:31:31;;;;;;;103.63;98.50;;;;;;;18.84;70.99;101203.03;5024449;27;102067;-56
2022/10/04 11:34:23;;;;;;;101.88;96.80;;;;;;;18.84;70.93;101202.22;5019071;28;102528;-56
2022/10/04 11:37:04;;;;;;;101.95;96.90;;;;;;;18.84;70.85;101202.22;5016473;28;103862;-56
2022/10/04 11:39:52;;;;;;;103.97;98.68;;;;;;;18.84;70.92;101203.03;5019825;28;103722;-56
2022/10/04 11:42:35;;;;;;;101.57;96.63;;;;;;;18.83;70.79;101206.94;5029051;28;102254;-57
2022/10/04 11:45:35;;;;;;;102.93;97.85;;;;;;;18.82;70.76;101209.97;5030792;27;102477;-56